KBAB/BAB METAR and TAF weather

Enter ICAO airport designator
Station Type Date Time Source
KBAB METAR 2021/05/15 23:58 UTC NOAA

KBAB 152358Z 19008KT 10SM BKN120 24/10 A2977 RMK AO2A SLP082 WND DATA ESTMD ALSTG/SLP ESTMD T02360102


Station Type Date Time Source
KBAB Decoded METAR 2021/05/15 23:58 UTC NOAA

Marysville, Beale Air Force Base, CA, United States (KBAB) 39-08N 121-26W
May 15, 2021 - 07:58 PM EDT / 2021.05.15 2358 UTC
Wind: from the S (190 degrees) at 9 MPH (8 KT):0
Visibility: 10 mile(s):0
Sky conditions: mostly cloudy
Temperature: 74.5 F (23.6 C)
Dew Point: 50.4 F (10.2 C)
Relative Humidity: 42%
Pressure (altimeter): 29.77 in. Hg (1008 hPa)
ob: KBAB 152358Z 19008KT 10SM BKN120 24/10 A2977 RMK AO2A SLP082 WND DATA ESTMD ALSTG/SLP ESTMD T02360102
cycle: 0

Station Type Date Time Source
KBAB TAF 2021/05/15 23:27 UTC NOAA

TAF TAF KBAB 152320Z 1523/1703 20012KT 9999 SCT100 BKN160 QNH2973INS
TEMPO 1600/1605 14010G15KT 8000 -RA SCT065 BKN100 OVC150
BECMG 1605/1606 14009KT 9999 SCT100 BKN150 QNH2975INS
BECMG 1617/1618 15012KT 9999 SKC QNH2976INS TX25/1524Z TN11/1613Z LAST NO
AMDS AFT 1523 NEXT 1614

Example: see airport list